Terminal Aerodrome Forecast
Issued by NWS

Home | Current Version | Previous Version | Text Only | Print | Product List | Glossary On
Versions: 1 2 3 4 5 6 7 8 9 10 11 12 13 14 15 16 17 18 19 20 21 22 23 24 25 26 27 28
000
FTUS41 KCAR 311120
TAFFVE
TAF
KFVE 311120Z 3112/0112 27008KT P6SM SKC
     FM311300 28010KT P6SM SCT070
     FM311600 29011KT P6SM VCSH BKN035
     FM311800 32012G20KT 5SM -SHRA BKN040
     FM312200 34011KT P6SM SCT060=

USA.gov is the U.S. government's official web portal to all federal, state and local government web resources and services.